createdAt,value
2022-08-08T00:00:53.526Z,73119.34
2022-08-08T00:00:59.724Z,73117.38
2022-08-08T00:01:16.688Z,73119.34
2022-08-08T00:02:30.531Z,73117.38
2022-08-08T00:02:57.965Z,73125.34
2022-08-08T00:03:38.983Z,73127.34
2022-08-08T00:04:17.590Z,73125.34
2022-08-08T00:05:01.267Z,73129.34
2022-08-08T00:05:44.232Z,73127.34
2022-08-08T00:06:38.999Z,73123.34
2022-08-08T00:07:18.054Z,73125.34
2022-08-08T00:08:02.806Z,73129.34
2022-08-08T00:08:48.885Z,73127.34
2022-08-08T00:09:27.704Z,73133.34
2022-08-08T00:10:15.206Z,73127.34
2022-08-08T00:10:53.562Z,73131.34
2022-08-08T00:11:47.070Z,73123.34
2022-08-08T00:12:33.379Z,73127.34
2022-08-08T00:13:12.731Z,73133.34
2022-08-08T00:14:17.664Z,73129.34
2022-08-08T00:15:03.369Z,73133.34
2022-08-08T00:15:55.929Z,73129.34
2022-08-08T00:16:40.753Z,73135.31
2022-08-08T00:17:23.150Z,73133.34
2022-08-08T00:18:03.716Z,73131.34
2022-08-08T00:18:45.656Z,73131.34
2022-08-08T00:19:22.450Z,73129.34
2022-08-08T00:20:00.759Z,73133.34
2022-08-08T00:20:42.376Z,73137.31
2022-08-08T00:21:23.011Z,73137.31
2022-08-08T00:21:58.494Z,73133.34
2022-08-08T00:22:40.030Z,73133.34
2022-08-08T00:23:17.268Z,73143.31
2022-08-08T00:23:54.851Z,73131.34
2022-08-08T00:24:33.238Z,73133.34
2022-08-08T00:25:09.393Z,73131.34
2022-08-08T00:25:50.853Z,73127.34
2022-08-08T00:26:29.443Z,73125.34
2022-08-08T00:27:05.918Z,73125.34
2022-08-08T00:27:42.138Z,73127.34
2022-08-08T00:28:34.389Z,73125.34
2022-08-08T00:29:14.922Z,73129.34
2022-08-08T00:29:57.167Z,73133.34
2022-08-08T00:30:33.870Z,73129.34
2022-08-08T00:32:21.005Z,73129.34
2022-08-08T00:32:29.128Z,73123.34
2022-08-08T00:33:09.443Z,73129.34
2022-08-08T00:34:18.686Z,73129.34
2022-08-08T00:35:18.591Z,73125.34
2022-08-08T00:36:00.762Z,73125.34
2022-08-08T00:36:36.231Z,73125.34
2022-08-08T00:37:48.099Z,73125.34
2022-08-08T00:38:44.456Z,73125.34
2022-08-08T00:41:06.091Z,73127.34
2022-08-08T00:41:06.972Z,73125.34
2022-08-08T00:42:09.201Z,73131.34
2022-08-08T00:43:19.589Z,73125.34
2022-08-08T00:44:32.332Z,73129.34
2022-08-08T00:45:29.490Z,73131.34
2022-08-08T00:46:16.103Z,73129.34
2022-08-08T00:47:14.206Z,73127.34
2022-08-08T00:48:29.583Z,73135.31
2022-08-08T00:49:32.193Z,73129.34
2022-08-08T00:50:52.353Z,73127.34
2022-08-08T00:51:48.899Z,73129.34
2022-08-08T00:52:51.460Z,73135.31
2022-08-08T00:53:57.155Z,73133.34
2022-08-08T00:55:00.254Z,73133.34
2022-08-08T00:56:04.177Z,73133.34
2022-08-08T00:57:06.675Z,73139.31
2022-08-08T00:58:13.559Z,73133.34
2022-08-08T00:59:18.663Z,73137.31
2022-08-08T01:00:10.937Z,73135.31
2022-08-08T01:01:05.404Z,73131.34
2022-08-08T01:01:42.509Z,73135.31
2022-08-08T01:04:02.349Z,73141.31
2022-08-08T01:04:49.918Z,73133.34
2022-08-08T01:05:59.610Z,73129.34
2022-08-08T01:07:01.337Z,73133.34
2022-08-08T01:07:55.067Z,73137.31
2022-08-08T01:09:36.263Z,73139.31
2022-08-08T01:11:00.764Z,73133.34
2022-08-08T01:12:11.551Z,73141.31
2022-08-08T01:13:44.015Z,73137.31
2022-08-08T01:14:57.442Z,73133.34
2022-08-08T01:15:58.984Z,73137.31
2022-08-08T01:17:12.797Z,73133.34
2022-08-08T01:18:50.790Z,73133.34
2022-08-08T01:20:02.732Z,73139.31
2022-08-08T01:20:48.907Z,73137.31
2022-08-08T01:22:13.537Z,73137.31
2022-08-08T01:23:55.010Z,73139.31
2022-08-08T01:24:43.662Z,73137.31
2022-08-08T01:26:11.469Z,73143.31
2022-08-08T01:27:21.270Z,73141.31
2022-08-08T01:28:18.102Z,73141.31
2022-08-08T01:29:24.271Z,73141.31
2022-08-08T01:30:35.542Z,73141.31
2022-08-08T01:32:06.608Z,73139.31
2022-08-08T01:33:23.372Z,73139.31
2022-08-08T01:34:37.709Z,73143.31
2022-08-08T01:35:51.951Z,73145.31
2022-08-08T01:36:50.992Z,73145.31
2022-08-08T01:38:00.691Z,73141.31
2022-08-08T01:39:07.082Z,73139.31
2022-08-08T01:40:02.802Z,73133.34
2022-08-08T01:40:46.716Z,73137.31
2022-08-08T01:41:25.858Z,73137.31
2022-08-08T01:42:04.684Z,73137.31
2022-08-08T01:42:50.316Z,73141.31
2022-08-08T01:43:38.401Z,73141.31
2022-08-08T01:44:26.420Z,73139.31
2022-08-08T01:45:09.871Z,73141.31
2022-08-08T01:45:54.512Z,73133.34
2022-08-08T01:46:52.197Z,73137.31
2022-08-08T01:48:13.887Z,73145.31
2022-08-08T01:48:56.065Z,73145.31
2022-08-08T01:49:45.199Z,73141.31
2022-08-08T01:50:34.826Z,73137.31
2022-08-08T01:52:04.179Z,73143.31
2022-08-08T01:52:59.154Z,73141.31
2022-08-08T01:55:16.552Z,73137.31
2022-08-08T01:56:04.567Z,73141.31
2022-08-08T01:56:28.560Z,73145.31
2022-08-08T01:57:17.604Z,73141.31
2022-08-08T01:58:11.642Z,73153.28
2022-08-08T01:58:56.516Z,73149.31
2022-08-08T02:00:02.118Z,73145.31
2022-08-08T02:00:57.620Z,73149.31
2022-08-08T02:02:05.654Z,73145.31
2022-08-08T02:03:55.624Z,73149.31
2022-08-08T02:04:29.251Z,73149.31
2022-08-08T02:05:15.865Z,73143.31
2022-08-08T02:05:59.037Z,73137.31
2022-08-08T02:06:54.529Z,73141.31
2022-08-08T02:07:41.446Z,73147.31
2022-08-08T02:08:22.229Z,73141.31
2022-08-08T02:09:17.615Z,73147.31
2022-08-08T02:10:29.389Z,73149.31
2022-08-08T02:11:23.043Z,73155.28
2022-08-08T02:12:00.063Z,73147.31
2022-08-08T02:12:52.963Z,73149.31
2022-08-08T02:13:54.379Z,73155.28
2022-08-08T02:14:49.757Z,73145.31
2022-08-08T02:15:30.536Z,73149.31
2022-08-08T02:16:20.808Z,73157.28
2022-08-08T02:17:03.596Z,73149.31
2022-08-08T02:17:50.467Z,73157.28
2022-08-08T02:18:29.945Z,73153.28
2022-08-08T02:19:26.882Z,73153.28
2022-08-08T02:20:16.129Z,73153.28
2022-08-08T02:21:33.043Z,73149.31
2022-08-08T02:22:28.343Z,73153.28
2022-08-08T02:23:16.047Z,73147.31
2022-08-08T02:23:54.809Z,73153.28
2022-08-08T02:24:32.823Z,73149.31
2022-08-08T02:25:16.480Z,73145.31
2022-08-08T02:25:56.261Z,73153.28
2022-08-08T02:26:40.074Z,73151.28
2022-08-08T02:27:18.355Z,73149.31
2022-08-08T02:27:57.755Z,73151.28
2022-08-08T02:28:48.589Z,73157.28
2022-08-08T02:29:46.837Z,73149.31
2022-08-08T02:30:38.013Z,73149.31
2022-08-08T02:31:59.344Z,73153.28
2022-08-08T02:32:42.093Z,73157.28
2022-08-08T02:34:00.162Z,73161.28
2022-08-08T02:35:07.679Z,73161.28
2022-08-08T02:36:04.129Z,73161.28
2022-08-08T02:36:58.657Z,73163.28
2022-08-08T02:37:52.120Z,73161.28
2022-08-08T02:39:40.845Z,73161.28
2022-08-08T02:40:08.922Z,73165.28
2022-08-08T02:40:57.357Z,73165.28
2022-08-08T02:42:04.505Z,73165.28
2022-08-08T02:44:35.488Z,73161.28
2022-08-08T02:44:38.439Z,73167.25
2022-08-08T02:45:54.366Z,73173.25
2022-08-08T02:46:50.662Z,73171.25
2022-08-08T02:48:09.878Z,73173.25
2022-08-08T02:49:13.878Z,73169.25
2022-08-08T02:50:17.730Z,73167.25
2022-08-08T02:51:46.493Z,73177.25
2022-08-08T02:52:54.258Z,73169.25
2022-08-08T02:53:51.939Z,73177.25
2022-08-08T02:54:49.998Z,73173.25
2022-08-08T02:55:37.710Z,73177.25
2022-08-08T02:56:47.979Z,73179.25
2022-08-08T02:57:52.192Z,73177.25
2022-08-08T02:59:01.671Z,73175.25
2022-08-08T03:00:31.880Z,73173.25
2022-08-08T03:01:47.361Z,73173.25
2022-08-08T03:02:53.303Z,73177.25
2022-08-08T03:05:05.295Z,73179.25
2022-08-08T03:05:44.859Z,73181.25
2022-08-08T03:06:46.314Z,73179.25
2022-08-08T03:07:57.967Z,73177.25
2022-08-08T03:09:03.285Z,73173.25
2022-08-08T03:10:17.906Z,73177.25
2022-08-08T03:12:01.279Z,73177.25
2022-08-08T03:15:54.025Z,73173.25
2022-08-08T03:15:56.774Z,73171.25
2022-08-08T03:16:02.859Z,73171.25
2022-08-08T03:16:48.350Z,73179.25
2022-08-08T03:17:39.758Z,73173.25
2022-08-08T03:18:31.376Z,73177.25
2022-08-08T03:19:38.396Z,73177.25
2022-08-08T03:20:11.754Z,73177.25
2022-08-08T03:20:52.625Z,73177.25
2022-08-08T03:21:54.488Z,73179.25
2022-08-08T03:22:38.607Z,73181.25
2022-08-08T03:23:20.677Z,73173.25
2022-08-08T03:24:01.984Z,73175.25
2022-08-08T03:24:39.660Z,73173.25
2022-08-08T03:25:21.543Z,73177.25
2022-08-08T03:26:09.357Z,73177.25
2022-08-08T03:26:49.316Z,73177.25
2022-08-08T03:27:35.896Z,73177.25
2022-08-08T03:28:21.690Z,73177.25
2022-08-08T03:29:00.229Z,73177.25
2022-08-08T03:29:56.097Z,73181.25
2022-08-08T03:30:34.750Z,73177.25
2022-08-08T03:31:27.423Z,73177.25
2022-08-08T03:32:29.107Z,73177.25
2022-08-08T03:33:54.589Z,73177.25
2022-08-08T03:34:17.058Z,73179.25
2022-08-08T03:34:51.030Z,73181.25
2022-08-08T03:35:24.718Z,73183.22
2022-08-08T03:36:02.263Z,73177.25
2022-08-08T03:36:43.279Z,73177.25
2022-08-08T03:37:59.550Z,73177.25
2022-08-08T03:38:57.069Z,73181.25
2022-08-08T03:39:15.578Z,73177.25
2022-08-08T03:40:00.392Z,73177.25
2022-08-08T03:40:40.195Z,73179.25
2022-08-08T03:42:27.146Z,73179.25
2022-08-08T03:42:30.376Z,73175.25
2022-08-08T03:43:16.711Z,73183.22
2022-08-08T03:44:00.864Z,73181.25
2022-08-08T03:44:37.468Z,73177.25
2022-08-08T03:46:03.481Z,73177.25
2022-08-08T03:46:13.595Z,73175.25
2022-08-08T03:46:47.870Z,73177.25
2022-08-08T03:47:23.099Z,73187.22
2022-08-08T03:48:04.824Z,73177.25
2022-08-08T03:49:58.196Z,73181.25
2022-08-08T03:50:00.824Z,73181.25
2022-08-08T03:50:40.094Z,73177.25
2022-08-08T03:51:16.298Z,73181.25
2022-08-08T03:51:59.876Z,73189.22
2022-08-08T03:52:35.747Z,73189.22
2022-08-08T03:53:14.030Z,73197.22
2022-08-08T03:53:58.924Z,73193.22
2022-08-08T03:54:41.093Z,73201.19
2022-08-08T03:55:57.641Z,73211.19
2022-08-08T03:56:32.166Z,73213.19
2022-08-08T03:58:31.266Z,73217.16
2022-08-08T03:58:33.405Z,73221.16
2022-08-08T03:59:08.950Z,73223.16
2022-08-08T04:00:11.597Z,73225.16
2022-08-08T04:01:01.434Z,73227.16
2022-08-08T04:02:02.489Z,73223.16
2022-08-08T04:02:47.732Z,73225.16
2022-08-08T04:03:58.426Z,73223.16
2022-08-08T04:04:20.405Z,73231.16
2022-08-08T04:04:55.743Z,73227.16
2022-08-08T04:05:31.965Z,73229.16
2022-08-08T04:06:11.107Z,73227.16
2022-08-08T04:06:50.167Z,73231.16
2022-08-08T04:07:22.671Z,73229.16
2022-08-08T04:07:55.803Z,73233.13
2022-08-08T04:08:33.713Z,73229.16
2022-08-08T04:09:11.364Z,73239.13
2022-08-08T04:10:03.386Z,73229.16
2022-08-08T04:10:42.777Z,73231.16
2022-08-08T04:11:23.466Z,73229.16
2022-08-08T04:12:00.999Z,73225.16
2022-08-08T04:13:03.819Z,73231.16
2022-08-08T04:14:03.610Z,73237.13
2022-08-08T04:14:52.128Z,73233.13
2022-08-08T04:15:38.216Z,73235.13
2022-08-08T04:16:11.311Z,73237.13
2022-08-08T04:16:50.802Z,73245.13
2022-08-08T04:17:57.821Z,73239.13
2022-08-08T04:18:20.092Z,73243.13
2022-08-08T04:18:52.975Z,73245.13
2022-08-08T04:19:28.674Z,73243.13
2022-08-08T04:20:13.073Z,73247.13
2022-08-08T04:20:46.505Z,73245.13
2022-08-08T04:21:22.910Z,73245.13
2022-08-08T04:22:01.381Z,73245.13
2022-08-08T04:22:40.882Z,73249.09
2022-08-08T04:23:16.999Z,73245.13
2022-08-08T04:24:18.955Z,73251.09
2022-08-08T04:24:50.041Z,73253.09
2022-08-08T04:25:30.201Z,73251.09
2022-08-08T04:26:09.148Z,73253.09
2022-08-08T04:26:56.923Z,73251.09
2022-08-08T04:28:01.862Z,73253.09
2022-08-08T04:28:37.027Z,73257.09
2022-08-08T04:29:15.112Z,73257.09
2022-08-08T04:30:00.768Z,73261.09
2022-08-08T04:30:44.197Z,73253.09
2022-08-08T04:31:56.954Z,73257.09
2022-08-08T04:32:30.347Z,73253.09
2022-08-08T04:33:07.970Z,73257.09
2022-08-08T04:33:43.359Z,73263.09
2022-08-08T04:34:18.540Z,73261.09
2022-08-08T04:34:58.254Z,73257.09
2022-08-08T04:35:39.604Z,73269.06
2022-08-08T04:36:17.027Z,73259.09
2022-08-08T04:36:49.455Z,73261.09
2022-08-08T04:37:31.685Z,73259.09
2022-08-08T04:38:10.083Z,73257.09
2022-08-08T04:38:57.240Z,73261.09
2022-08-08T04:40:03.197Z,73257.09
2022-08-08T04:40:51.797Z,73257.09
2022-08-08T04:41:35.797Z,73257.09
2022-08-08T04:42:11.350Z,73257.09
2022-08-08T04:42:57.309Z,73257.09
2022-08-08T04:43:45.214Z,73255.09
2022-08-08T04:44:26.749Z,73257.09
2022-08-08T04:45:02.708Z,73257.09
2022-08-08T04:45:35.187Z,73261.09
2022-08-08T04:46:09.910Z,73253.09
2022-08-08T04:46:46.397Z,73259.09
2022-08-08T04:47:19.160Z,73257.09
2022-08-08T04:47:51.582Z,73257.09
2022-08-08T04:48:26.811Z,73257.09
2022-08-08T04:48:59.511Z,73257.09
2022-08-08T04:50:00.620Z,73261.09
2022-08-08T04:50:37.918Z,73255.09
2022-08-08T04:51:12.251Z,73251.09
2022-08-08T04:51:58.699Z,73257.09
2022-08-08T04:52:35.193Z,73255.09
2022-08-08T04:53:52.294Z,73253.09
2022-08-08T04:54:40.110Z,73253.09
2022-08-08T04:55:00.669Z,73249.09
2022-08-08T04:55:37.892Z,73249.09
2022-08-08T04:56:23.629Z,73251.09
2022-08-08T04:56:58.812Z,73249.09
2022-08-08T04:57:31.443Z,73249.09
2022-08-08T04:58:11.057Z,73249.09
2022-08-08T04:58:50.347Z,73251.09
2022-08-08T04:59:24.178Z,73249.09
2022-08-08T05:00:02.786Z,73257.09
2022-08-08T05:00:37.851Z,73253.09
2022-08-08T05:01:11.743Z,73251.09
2022-08-08T05:01:59.477Z,73257.09
2022-08-08T05:02:36.655Z,73261.09
2022-08-08T05:03:19.128Z,73253.09
2022-08-08T05:04:12.820Z,73257.09
2022-08-08T05:04:49.466Z,73255.09
2022-08-08T05:05:45.411Z,73253.09
2022-08-08T05:06:18.496Z,73249.09
2022-08-08T05:07:03.533Z,73245.13
2022-08-08T05:07:42.913Z,73249.09
2022-08-08T05:08:20.187Z,73257.09
2022-08-08T05:09:02.968Z,73253.09
2022-08-08T05:09:43.274Z,73249.09
2022-08-08T05:10:15.716Z,73249.09
2022-08-08T05:10:51.652Z,73245.13
2022-08-08T05:11:27.106Z,73245.13
2022-08-08T05:12:06.551Z,73245.13
2022-08-08T05:13:01.598Z,73245.13
2022-08-08T05:13:36.920Z,73243.13
2022-08-08T05:14:32.259Z,73243.13
2022-08-08T05:15:13.507Z,73241.13
2022-08-08T05:16:52.410Z,73247.13
2022-08-08T05:16:54.355Z,73247.13
2022-08-08T05:17:53.402Z,73249.09
2022-08-08T05:18:28.682Z,73249.09
2022-08-08T05:19:01.182Z,73249.09
2022-08-08T05:20:09.194Z,73255.09
2022-08-08T05:20:48.389Z,73253.09
2022-08-08T05:21:26.589Z,73257.09
2022-08-08T05:22:00.720Z,73255.09
2022-08-08T05:22:39.107Z,73261.09
2022-08-08T05:23:11.713Z,73259.09
2022-08-08T05:23:46.045Z,73257.09
2022-08-08T05:24:22.621Z,73265.09
2022-08-08T05:24:59.218Z,73263.09
2022-08-08T05:25:40.497Z,73265.09
2022-08-08T05:26:14.505Z,73265.09
2022-08-08T05:26:49.679Z,73261.09
2022-08-08T05:27:24.818Z,73261.09
2022-08-08T05:27:58.711Z,73261.09
2022-08-08T05:28:56.513Z,73261.09
2022-08-08T05:29:29.320Z,73259.09
2022-08-08T05:30:03.745Z,73261.09
2022-08-08T05:30:47.119Z,73265.09
2022-08-08T05:32:05.446Z,73261.09
2022-08-08T05:32:15.960Z,73265.09
2022-08-08T05:32:48.891Z,73265.09
2022-08-08T05:33:27.656Z,73269.06
2022-08-08T05:34:23.195Z,73263.09
2022-08-08T05:35:04.980Z,73257.09
2022-08-08T05:35:42.763Z,73261.09
2022-08-08T05:36:25.155Z,73261.09
2022-08-08T05:37:00.435Z,73261.09
2022-08-08T05:37:51.804Z,73253.09
2022-08-08T05:38:31.661Z,73257.09
2022-08-08T05:39:12.066Z,73259.09
2022-08-08T05:39:48.211Z,73255.09
2022-08-08T05:40:28.006Z,73261.09
2022-08-08T05:41:05.050Z,73253.09
2022-08-08T05:41:54.852Z,73255.09
2022-08-08T05:42:38.237Z,73253.09
2022-08-08T05:43:38.329Z,73251.09
2022-08-08T05:44:14.442Z,73253.09
2022-08-08T05:44:51.835Z,73253.09
2022-08-08T05:45:31.352Z,73249.09
2022-08-08T05:46:17.623Z,73245.13
2022-08-08T05:46:53.563Z,73245.13
2022-08-08T05:47:52.743Z,73249.09
2022-08-08T05:48:31.782Z,73251.09
2022-08-08T05:49:11.668Z,73241.13
2022-08-08T05:49:56.009Z,73245.13
2022-08-08T05:50:36.427Z,73245.13
2022-08-08T05:51:12.782Z,73243.13
2022-08-08T05:51:51.660Z,73245.13
2022-08-08T05:52:33.921Z,73251.09
2022-08-08T05:53:53.635Z,73245.13
2022-08-08T05:54:26.787Z,73245.13
2022-08-08T05:55:03.461Z,73239.13
2022-08-08T05:56:11.551Z,73245.13
2022-08-08T05:56:42.704Z,73247.13
2022-08-08T05:58:05.555Z,73245.13
2022-08-08T05:58:28.863Z,73245.13
2022-08-08T05:59:12.420Z,73243.13
2022-08-08T06:00:00.214Z,73245.13
2022-08-08T06:00:59.587Z,73247.13
2022-08-08T06:01:52.527Z,73241.13
2022-08-08T06:02:43.765Z,73241.13
2022-08-08T06:03:25.392Z,73235.13
2022-08-08T06:04:08.072Z,73239.13
2022-08-08T06:04:54.707Z,73241.13
2022-08-08T06:05:36.026Z,73243.13
2022-08-08T06:06:17.946Z,73245.13
2022-08-08T06:06:51.909Z,73239.13
2022-08-08T06:07:24.420Z,73245.13
2022-08-08T06:08:09.530Z,73245.13
2022-08-08T06:08:53.212Z,73241.13
2022-08-08T06:09:59.383Z,73239.13
2022-08-08T06:10:32.235Z,73241.13
2022-08-08T06:11:08.694Z,73241.13
2022-08-08T06:11:46.789Z,73237.13
2022-08-08T06:12:30.149Z,73241.13
2022-08-08T06:13:07.166Z,73245.13
2022-08-08T06:13:46.982Z,73241.13
2022-08-08T06:14:25.912Z,73241.13
2022-08-08T06:14:58.750Z,73241.13
2022-08-08T06:15:50.527Z,73243.13
2022-08-08T06:16:31.577Z,73243.13
2022-08-08T06:17:20.438Z,73245.13
2022-08-08T06:18:20.358Z,73245.13
2022-08-08T06:18:54.523Z,73245.13
2022-08-08T06:19:33.185Z,73245.13
2022-08-08T06:20:11.713Z,73237.13
2022-08-08T06:20:45.764Z,73239.13
2022-08-08T06:21:28.212Z,73239.13
2022-08-08T06:22:32.226Z,73237.13
2022-08-08T06:23:04.662Z,73237.13
2022-08-08T06:23:53.397Z,73239.13
2022-08-08T06:24:40.077Z,73233.13
2022-08-08T06:25:13.665Z,73231.16
2022-08-08T06:26:43.312Z,73237.13
2022-08-08T06:27:01.079Z,73233.13
2022-08-08T06:27:47.850Z,73231.16
2022-08-08T06:28:28.972Z,73229.16
2022-08-08T06:29:18.613Z,73229.16
2022-08-08T06:30:19.861Z,73233.13
2022-08-08T06:31:02.526Z,73225.16
2022-08-08T06:32:09.362Z,73225.16
2022-08-08T06:32:38.890Z,73229.16
2022-08-08T06:33:15.084Z,73229.16
2022-08-08T06:34:26.281Z,73229.16
2022-08-08T06:34:56.375Z,73225.16
2022-08-08T06:36:06.432Z,73225.16
2022-08-08T06:36:53.510Z,73225.16
2022-08-08T06:37:29.074Z,73223.16
2022-08-08T06:38:14.965Z,73227.16
2022-08-08T06:38:54.858Z,73225.16
2022-08-08T06:39:33.394Z,73221.16
2022-08-08T06:40:16.434Z,73221.16
2022-08-08T06:40:53.678Z,73217.16
2022-08-08T06:41:35.695Z,73219.16
2022-08-08T06:42:15.375Z,73213.19
2022-08-08T06:42:57.526Z,73217.16
2022-08-08T06:43:37.791Z,73213.19
2022-08-08T06:44:25.581Z,73213.19
2022-08-08T06:45:05.442Z,73209.19
2022-08-08T06:45:42.828Z,73213.19
2022-08-08T06:46:16.376Z,73209.19
2022-08-08T06:46:55.239Z,73211.19
2022-08-08T06:47:31.516Z,73209.19
2022-08-08T06:48:10.111Z,73207.19
2022-08-08T06:48:46.045Z,73201.19
2022-08-08T06:49:19.319Z,73205.19
2022-08-08T06:50:17.670Z,73205.19
2022-08-08T06:51:08.365Z,73203.19
2022-08-08T06:51:52.700Z,73197.22
2022-08-08T06:52:32.364Z,73201.19
2022-08-08T06:53:17.434Z,73205.19
2022-08-08T06:53:56.733Z,73201.19
2022-08-08T06:54:49.009Z,73199.22
2022-08-08T06:55:22.233Z,73201.19
2022-08-08T06:56:02.246Z,73197.22
2022-08-08T06:56:38.106Z,73193.22
2022-08-08T06:57:15.228Z,73193.22
2022-08-08T06:57:56.329Z,73191.22
2022-08-08T06:58:34.129Z,73185.22
2022-08-08T06:59:12.355Z,73189.22
2022-08-08T07:00:11.436Z,73185.22
2022-08-08T07:00:45.795Z,73185.22
2022-08-08T07:02:17.968Z,73177.25
2022-08-08T07:02:28.935Z,73185.22
2022-08-08T07:03:08.576Z,73185.22
2022-08-08T07:04:36.350Z,73181.25
2022-08-08T07:04:54.650Z,73183.22
2022-08-08T07:05:40.223Z,73177.25
2022-08-08T07:06:17.375Z,73181.25
2022-08-08T07:06:56.441Z,73173.25
2022-08-08T07:07:46.851Z,73169.25
2022-08-08T07:08:30.159Z,73177.25
2022-08-08T07:09:09.018Z,73165.28
2022-08-08T07:09:59.924Z,73169.25
2022-08-08T07:10:49.710Z,73169.25
2022-08-08T07:11:26.912Z,73161.28
2022-08-08T07:12:06.774Z,73165.28
2022-08-08T07:12:47.913Z,73167.25
2022-08-08T07:14:00.456Z,73159.28
2022-08-08T07:14:46.107Z,73163.28
2022-08-08T07:16:03.778Z,73159.28
2022-08-08T07:16:35.419Z,73161.28
2022-08-08T07:17:40.194Z,73159.28
2022-08-08T07:18:35.980Z,73159.28
2022-08-08T07:19:12.899Z,73157.28
2022-08-08T07:19:59.835Z,73157.28
2022-08-08T07:20:40.636Z,73157.28
2022-08-08T07:21:27.061Z,73157.28
2022-08-08T07:22:11.886Z,73155.28
2022-08-08T07:23:01.863Z,73153.28
2022-08-08T07:24:01.044Z,73149.31
2022-08-08T07:24:39.033Z,73153.28
2022-08-08T07:25:17.408Z,73149.31
2022-08-08T07:25:55.541Z,73149.31
2022-08-08T07:26:35.764Z,73155.28
2022-08-08T07:27:16.421Z,73147.31
2022-08-08T07:28:02.571Z,73157.28
2022-08-08T07:28:44.830Z,73157.28
2022-08-08T07:30:00.440Z,73149.31
2022-08-08T07:30:21.298Z,73151.28
2022-08-08T07:31:01.262Z,73157.28
2022-08-08T07:31:39.302Z,73147.31
2022-08-08T07:32:15.848Z,73157.28
2022-08-08T07:32:54.656Z,73151.28
2022-08-08T07:33:37.606Z,73149.31
2022-08-08T07:34:20.264Z,73151.28
2022-08-08T07:35:08.576Z,73147.31
2022-08-08T07:35:51.291Z,73151.28
2022-08-08T07:36:27.281Z,73157.28
2022-08-08T07:37:11.733Z,73153.28
2022-08-08T07:38:04.371Z,73157.28
2022-08-08T07:38:53.352Z,73151.28
2022-08-08T07:39:35.456Z,73147.31
2022-08-08T07:40:28.929Z,73149.31
2022-08-08T07:41:23.545Z,73149.31
2022-08-08T07:42:04.543Z,73145.31
2022-08-08T07:42:40.501Z,73145.31
2022-08-08T07:43:16.909Z,73149.31
2022-08-08T07:44:37.807Z,73145.31
2022-08-08T07:45:02.137Z,73153.28
2022-08-08T07:46:04.815Z,73147.31
2022-08-08T07:46:33.608Z,73149.31
2022-08-08T07:47:22.205Z,73149.31
2022-08-08T07:48:13.567Z,73151.28
2022-08-08T07:48:49.451Z,73141.31
2022-08-08T07:49:21.984Z,73145.31
2022-08-08T07:49:54.891Z,73149.31
2022-08-08T07:50:34.214Z,73141.31
2022-08-08T07:51:24.015Z,73139.31
2022-08-08T07:52:06.242Z,73145.31
2022-08-08T07:52:43.800Z,73149.31
2022-08-08T07:54:01.813Z,73145.31
2022-08-08T07:54:30.594Z,73141.31
2022-08-08T07:55:14.136Z,73145.31
2022-08-08T07:55:49.000Z,73145.31
2022-08-08T07:56:35.527Z,73145.31
2022-08-08T07:57:21.142Z,73141.31
2022-08-08T07:58:14.786Z,73141.31
2022-08-08T07:58:50.040Z,73143.31
2022-08-08T07:59:24.131Z,73145.31
2022-08-08T08:00:16.456Z,73137.31
2022-08-08T08:01:05.482Z,73141.31
2022-08-08T08:02:36.802Z,73145.31
2022-08-08T08:02:47.805Z,73141.31
2022-08-08T08:03:43.431Z,73149.31
2022-08-08T08:04:25.810Z,73145.31
2022-08-08T08:05:03.645Z,73145.31
2022-08-08T08:05:45.248Z,73147.31
2022-08-08T08:06:27.349Z,73141.31
2022-08-08T08:07:00.935Z,73143.31
2022-08-08T08:07:38.780Z,73145.31
2022-08-08T08:08:18.976Z,73137.31
2022-08-08T08:08:58.430Z,73145.31
2022-08-08T08:09:37.719Z,73141.31
2022-08-08T08:10:30.468Z,73137.31
2022-08-08T08:11:18.463Z,73141.31
2022-08-08T08:11:56.462Z,73143.31
2022-08-08T08:12:38.598Z,73141.31
2022-08-08T08:13:25.454Z,73145.31
2022-08-08T08:14:09.602Z,73143.31
2022-08-08T08:14:54.842Z,73145.31
2022-08-08T08:15:33.636Z,73145.31
2022-08-08T08:16:09.871Z,73141.31
2022-08-08T08:16:54.805Z,73147.31
2022-08-08T08:17:47.529Z,73141.31
2022-08-08T08:18:31.942Z,73141.31
2022-08-08T08:19:07.500Z,73145.31
2022-08-08T08:19:50.423Z,73141.31
2022-08-08T08:20:30.065Z,73141.31
2022-08-08T08:21:04.038Z,73139.31
2022-08-08T08:21:57.750Z,73141.31
2022-08-08T08:22:48.830Z,73141.31
2022-08-08T08:23:27.565Z,73143.31
2022-08-08T08:24:03.042Z,73137.31
2022-08-08T08:24:39.483Z,73133.34
2022-08-08T08:25:16.908Z,73133.34
2022-08-08T08:25:58.549Z,73137.31
2022-08-08T08:26:32.559Z,73137.31
2022-08-08T08:27:11.112Z,73133.34
2022-08-08T08:27:47.564Z,73139.31
2022-08-08T08:28:23.728Z,73135.31
2022-08-08T08:29:00.267Z,73131.34
2022-08-08T08:29:35.683Z,73135.31
2022-08-08T08:30:12.931Z,73133.34
2022-08-08T08:30:45.803Z,73133.34
2022-08-08T08:31:21.087Z,73133.34
2022-08-08T08:31:58.384Z,73129.34
2022-08-08T08:32:36.301Z,73131.34
2022-08-08T08:33:20.857Z,73127.34
2022-08-08T08:33:54.710Z,73125.34
2022-08-08T08:34:32.504Z,73125.34
2022-08-08T08:35:08.063Z,73125.34
2022-08-08T08:36:18.881Z,73125.34
2022-08-08T08:36:37.528Z,73121.34
2022-08-08T08:37:15.717Z,73125.34
2022-08-08T08:38:14.622Z,73117.38
2022-08-08T08:38:49.496Z,73117.38
2022-08-08T08:39:59.522Z,73117.38
2022-08-08T08:40:22.203Z,73121.34
2022-08-08T08:40:55.309Z,73117.38
2022-08-08T08:41:31.491Z,73119.34
2022-08-08T08:42:05.364Z,73117.38
2022-08-08T08:42:45.071Z,73121.34
2022-08-08T08:43:26.639Z,73117.38
2022-08-08T08:44:14.172Z,73117.38
2022-08-08T08:44:49.379Z,73123.34
2022-08-08T08:45:23.853Z,73121.34
2022-08-08T08:46:05.927Z,73119.34
2022-08-08T08:46:39.511Z,73119.34
2022-08-08T08:47:20.704Z,73117.38
2022-08-08T08:47:58.536Z,73119.34
2022-08-08T08:48:49.152Z,73117.38
2022-08-08T08:49:25.634Z,73113.38
2022-08-08T08:50:02.988Z,73115.38
2022-08-08T08:50:40.964Z,73115.38
2022-08-08T08:51:17.879Z,73113.38
2022-08-08T08:51:54.498Z,73109.38
2022-08-08T08:52:28.843Z,73109.38
2022-08-08T08:53:28.240Z,73109.38
2022-08-08T08:54:05.869Z,73103.38
2022-08-08T08:54:41.864Z,73113.38
2022-08-08T08:55:16.168Z,73105.38
2022-08-08T08:56:02.551Z,73109.38
2022-08-08T08:56:39.499Z,73109.38
2022-08-08T08:57:21.597Z,73107.38
2022-08-08T08:57:55.510Z,73109.38
2022-08-08T08:58:39.974Z,73105.38
2022-08-08T08:59:16.659Z,73109.38
2022-08-08T09:00:05.664Z,73109.38
2022-08-08T09:01:04.968Z,73107.38
2022-08-08T09:01:43.910Z,73109.38
2022-08-08T09:02:30.068Z,73109.38
2022-08-08T09:03:09.758Z,73107.38
2022-08-08T09:03:47.189Z,73111.38
2022-08-08T09:04:32.176Z,73109.38
2022-08-08T09:05:49.060Z,73107.38
2022-08-08T09:06:26.714Z,73109.38
2022-08-08T09:07:12.714Z,73113.38
2022-08-08T09:07:52.271Z,73105.38
2022-08-08T09:08:49.817Z,73105.38
2022-08-08T09:09:39.033Z,73107.38
2022-08-08T09:10:28.191Z,73105.38
2022-08-08T09:11:04.622Z,73105.38
2022-08-08T09:11:46.928Z,73105.38
2022-08-08T09:12:25.498Z,73105.38
2022-08-08T09:13:00.966Z,73105.38
2022-08-08T09:13:37.881Z,73105.38
2022-08-08T09:14:10.922Z,73103.38
2022-08-08T09:14:46.992Z,73097.41
2022-08-08T09:15:37.535Z,73101.41
2022-08-08T09:16:16.234Z,73105.38
2022-08-08T09:16:53.813Z,73103.38